Time;durP1;ratioP1;P1;durP2;ratioP2;P2;SDS_P1;SDS_P2;PMS_P1;PMS_P2;Temp;Humidity;BMP_temperature;BMP_pressure;BME280_temperature;BME280_humidity;BME280_pressure;Samples;Min_cycle;Max_cycle;Signal;HPM_P1;HPM_P2
2021/12/05 00:23:45;;;;;;;7.75;4.15;;;;;;;-0.43;55.22;99669.16;4989650;28;20038;-71
2021/12/05 00:26:16;;;;;;;6.85;3.78;;;;;;;-0.43;55.04;99670.00;4992927;28;20034;-71
2021/12/05 00:39:40;;;;;;;11.10;5.10;;;;;;;-0.56;55.01;99679.56;4991187;28;20038;-71
2021/12/05 00:48:00;;;;;;;10.95;4.80;;;;;;;-0.41;55.30;99687.97;4988274;28;20050;-71
2021/12/05 00:59:12;;;;;;;8.73;4.22;;;;;;;-0.55;55.64;99675.28;4957044;28;20109;-70
2021/12/05 01:04:39;;;;;;;6.50;3.55;;;;;;;-0.30;55.18;99693.78;4911623;28;20183;-71
2021/12/05 01:07:19;;;;;;;10.93;4.53;;;;;;;-0.26;54.67;99695.44;4959975;28;20041;-70
2021/12/05 01:10:08;;;;;;;6.05;3.60;;;;;;;-0.28;54.97;99698.88;4983165;28;20038;-70
2021/12/05 01:15:17;;;;;;;7.53;3.50;;;;;;;-0.22;54.46;99704.78;4980896;28;20030;-70
2021/12/05 01:18:01;;;;;;;9.13;3.97;;;;;;;-0.25;54.81;99715.09;4987706;28;20126;-67
2021/12/05 01:20:32;;;;;;;9.50;3.97;;;;;;;-0.24;54.78;99710.81;4978086;28;20446;-70
2021/12/05 01:23:06;;;;;;;7.68;3.33;;;;;;;-0.28;54.77;99714.28;4976754;28;20041;-68
2021/12/05 01:41:48;;;;;;;6.28;3.78;;;;;;;-0.17;54.67;99725.25;4981302;28;20409;-70
2021/12/05 02:07:35;;;;;;;4.20;2.50;;;;;;;-0.29;54.86;99744.25;4992053;28;20089;-70
2021/12/05 02:36:18;;;;;;;5.32;3.08;;;;;;;-0.33;54.98;99745.16;4980838;28;20069;-73
2021/12/05 02:41:19;;;;;;;4.15;2.15;;;;;;;-0.36;54.83;99750.34;4980856;28;20502;-68
2021/12/05 02:43:56;;;;;;;4.25;2.25;;;;;;;-0.33;54.89;99750.31;4965411;28;20038;-70
2021/12/05 02:46:24;;;;;;;4.75;2.13;;;;;;;-0.38;55.18;99757.22;4989347;28;20049;-67
2021/12/05 02:48:50;;;;;;;4.60;2.28;;;;;;;-0.30;54.73;99752.84;4991182;28;20157;-68
2021/12/05 02:51:21;;;;;;;2.97;1.73;;;;;;;-0.29;54.96;99749.41;4990235;28;20041;-68
2021/12/05 02:54:02;;;;;;;4.30;1.98;;;;;;;-0.41;55.08;99754.72;4980753;28;20117;-68
2021/12/05 02:56:33;;;;;;;4.20;1.77;;;;;;;-0.25;54.92;99750.22;4980294;28;20153;-67
2021/12/05 02:59:06;;;;;;;4.68;2.15;;;;;;;-0.25;54.69;99747.66;4990766;28;20026;-69
2021/12/05 03:01:45;;;;;;;4.05;1.75;;;;;;;-0.27;54.78;99746.81;4958463;28;20030;-69
2021/12/05 03:04:11;;;;;;;4.20;1.92;;;;;;;-0.24;54.62;99752.75;4976532;28;20352;-68
2021/12/05 03:06:38;;;;;;;3.78;2.15;;;;;;;-0.26;54.55;99748.50;4980697;28;20061;-70
2021/12/05 03:09:13;;;;;;;5.63;2.42;;;;;;;-0.36;55.02;99752.91;4966340;28;20266;-68
2021/12/05 03:11:39;;;;;;;4.22;1.75;;;;;;;-0.31;54.99;99751.13;4973930;28;20533;-69
2021/12/05 03:14:06;;;;;;;4.97;2.00;;;;;;;-0.40;54.92;99753.81;4990713;28;20068;-68
2021/12/05 03:16:35;;;;;;;3.92;1.92;;;;;;;-0.32;54.83;99753.75;4975871;28;20026;-69
2021/12/05 03:19:01;;;;;;;4.85;2.05;;;;;;;-0.32;54.80;99759.72;4982656;28;20044;-69
2021/12/05 03:21:26;;;;;;;4.07;1.88;;;;;;;-0.31;54.95;99756.28;4989116;28;20033;-68
2021/12/05 03:23:53;;;;;;;6.57;2.95;;;;;;;-0.35;54.96;99759.75;4977667;28;20038;-69
2021/12/05 03:26:23;;;;;;;5.15;2.58;;;;;;;-0.33;54.83;99758.00;4988318;28;20038;-69
2021/12/05 03:28:51;;;;;;;5.00;2.85;;;;;;;-0.36;54.69;99755.50;4989511;28;20359;-69
2021/12/05 03:31:18;;;;;;;5.10;2.38;;;;;;;-0.42;54.47;99756.41;4991890;28;20618;-69
2021/12/05 03:33:48;;;;;;;3.78;2.38;;;;;;;-0.41;54.95;99755.56;4971706;28;20069;-69
2021/12/05 03:36:14;;;;;;;6.60;3.03;;;;;;;-0.41;54.78;99760.69;4975846;28;20048;-70
2021/12/05 03:38:42;;;;;;;3.95;2.30;;;;;;;-0.46;54.91;99766.72;4954665;28;20042;-68
2021/12/05 03:41:11;;;;;;;7.15;2.92;;;;;;;-0.43;55.03;99761.56;4974004;28;20065;-69
2021/12/05 03:43:38;;;;;;;3.55;1.75;;;;;;;-0.38;54.75;99759.78;4973877;28;20045;-69
2021/12/05 03:46:05;;;;;;;4.97;2.63;;;;;;;-0.41;55.00;99764.97;4974834;28;20418;-68
2021/12/05 03:48:37;;;;;;;5.50;2.63;;;;;;;-0.36;54.79;99763.19;4971527;28;20040;-70
2021/12/05 03:51:04;;;;;;;5.13;2.28;;;;;;;-0.31;54.88;99761.41;4973643;28;20040;-69
2021/12/05 03:53:31;;;;;;;3.25;1.42;;;;;;;-0.38;54.72;99760.63;4975819;28;20057;-68
2021/12/05 03:55:57;;;;;;;5.90;2.28;;;;;;;-0.39;54.92;99761.50;4981317;28;20716;-68
2021/12/05 03:58:24;;;;;;;6.65;2.67;;;;;;;-0.40;55.08;99761.53;4974379;28;20042;-71
2021/12/05 04:00:55;;;;;;;5.63;2.45;;;;;;;-0.35;54.81;99760.63;4982061;28;20033;-71
2021/12/05 04:03:24;;;;;;;4.70;2.58;;;;;;;-0.34;54.76;99766.59;4971097;28;20045;-70
2021/12/05 04:05:51;;;;;;;4.68;2.10;;;;;;;-0.31;54.82;99770.84;4974682;28;20046;-70
2021/12/05 04:08:20;;;;;;;4.90;2.22;;;;;;;-0.29;54.80;99777.66;4972686;28;20148;-69
2021/12/05 04:13:16;;;;;;;6.20;2.83;;;;;;;-0.28;54.92;99788.75;4906879;28;20043;-65
2021/12/05 04:15:46;;;;;;;4.45;2.20;;;;;;;-0.34;55.17;99787.13;4927416;28;20052;-64
2021/12/05 04:18:13;;;;;;;5.07;2.17;;;;;;;-0.40;55.03;99793.19;4935106;28;20043;-63
2021/12/05 04:20:39;;;;;;;5.05;1.80;;;;;;;-0.40;54.99;99787.19;4938881;28;20031;-63
2021/12/05 04:23:05;;;;;;;6.15;2.30;;;;;;;-0.32;55.16;99789.69;4936337;28;20552;-65
2021/12/05 04:25:36;;;;;;;7.13;2.80;;;;;;;-0.37;54.98;99794.84;4935412;28;20130;-65
2021/12/05 04:28:03;;;;;;;6.47;2.25;;;;;;;-0.27;54.76;99788.75;4942364;28;20463;-65
2021/12/05 04:30:29;;;;;;;5.85;2.47;;;;;;;-0.22;55.04;99792.09;4934378;28;20035;-64
2021/12/05 04:32:55;;;;;;;4.35;2.33;;;;;;;-0.28;54.87;99799.91;4940533;28;20039;-65
2021/12/05 04:35:21;;;;;;;4.93;2.78;;;;;;;-0.30;54.82;99803.34;4941537;28;20425;-64
2021/12/05 04:37:47;;;;;;;5.30;2.50;;;;;;;-0.28;54.75;99807.59;4949182;28;20032;-64
2021/12/05 04:40:13;;;;;;;8.05;2.38;;;;;;;-0.26;55.02;99811.00;4954076;28;20404;-63
2021/12/05 04:42:43;;;;;;;4.57;1.77;;;;;;;-0.36;54.82;99817.94;4935712;28;20035;-64
2021/12/05 04:45:18;;;;;;;5.35;2.50;;;;;;;-0.36;54.64;99814.53;4942136;28;20238;-64
2021/12/05 04:47:44;;;;;;;5.70;2.45;;;;;;;-0.33;54.38;99818.78;4929909;28;20031;-64
2021/12/05 04:50:13;;;;;;;6.15;2.90;;;;;;;-0.42;54.82;99824.88;4940252;28;20027;-64
2021/12/05 04:52:40;;;;;;;3.83;2.03;;;;;;;-0.41;54.72;99813.75;4950527;28;20063;-64
2021/12/05 04:55:07;;;;;;;5.75;2.53;;;;;;;-0.35;54.82;99813.66;4934807;28;20031;-64
2021/12/05 04:57:33;;;;;;;6.85;2.40;;;;;;;-0.37;54.84;99823.09;4934862;28;20039;-63
2021/12/05 04:59:59;;;;;;;5.30;2.70;;;;;;;-0.39;55.10;99815.44;4936902;28;20074;-64
2021/12/05 05:02:25;;;;;;;4.47;2.17;;;;;;;-0.41;55.20;99821.47;4936058;28;20038;-65
2021/12/05 05:04:53;;;;;;;6.00;3.00;;;;;;;-0.50;55.42;99826.66;4939355;28;20027;-64
2021/12/05 05:07:25;;;;;;;4.97;2.08;;;;;;;-0.34;54.83;99820.50;4935021;28;20055;-65
2021/12/05 05:10:16;;;;;;;5.43;1.95;;;;;;;-0.24;54.73;99827.22;4938535;28;20380;-65
2021/12/05 05:12:42;;;;;;;5.07;2.33;;;;;;;-0.26;54.70;99833.25;4931029;28;20051;-63
2021/12/05 05:15:08;;;;;;;3.90;1.70;;;;;;;-0.23;54.60;99823.81;4941475;28;20043;-65
2021/12/05 05:17:36;;;;;;;6.82;2.42;;;;;;;-0.29;54.98;99831.56;4938976;28;20044;-65
2021/12/05 05:20:08;;;;;;;4.68;2.08;;;;;;;-0.31;54.80;99838.44;4937885;28;20258;-65
2021/12/05 05:22:43;;;;;;;4.57;2.00;;;;;;;-0.31;54.62;99842.72;4910323;28;20438;-65
2021/12/05 05:49:20;;;;;;;4.72;2.42;;;;;;;-0.39;54.89;99884.75;4940623;28;20039;-64
2021/12/05 05:51:46;;;;;;;6.43;1.90;;;;;;;-0.37;54.82;99893.28;4957110;28;20039;-63
2021/12/05 05:54:12;;;;;;;4.43;1.60;;;;;;;-0.37;54.93;99898.44;4942746;28;20184;-63
2021/12/05 05:56:40;;;;;;;3.83;1.70;;;;;;;-0.54;55.53;99900.31;4943353;28;20054;-65
2021/12/05 05:59:18;;;;;;;3.08;1.58;;;;;;;-0.39;54.99;99907.03;4943023;28;20038;-65
2021/12/05 06:04:15;;;;;;;4.40;1.98;;;;;;;-0.43;55.00;99913.03;4956015;28;20035;-66
2021/12/05 06:06:41;;;;;;;3.47;2.05;;;;;;;-0.41;54.95;99919.03;4943171;28;20051;-64
2021/12/05 06:09:08;;;;;;;3.53;1.38;;;;;;;-0.39;54.96;99922.44;4943342;28;20038;-65
2021/12/05 06:11:34;;;;;;;4.78;1.75;;;;;;;-0.50;55.35;99924.22;4940253;28;20042;-64
2021/12/05 06:14:00;;;;;;;4.18;1.85;;;;;;;-0.49;55.38;99926.78;4942453;28;20654;-64
2021/12/05 06:16:25;;;;;;;4.85;2.10;;;;;;;-0.51;55.34;99922.53;4941634;28;20042;-64
2021/12/05 06:18:51;;;;;;;4.88;1.73;;;;;;;-0.57;55.49;99929.44;4942899;28;20784;-66
2021/12/05 06:21:17;;;;;;;5.25;2.15;;;;;;;-0.66;55.46;99926.94;4938073;28;20069;-65
2021/12/05 06:23:43;;;;;;;4.40;2.00;;;;;;;-0.53;55.36;99934.53;4940771;28;20040;-65
2021/12/05 06:26:12;;;;;;;7.03;2.53;;;;;;;-0.70;55.72;99932.97;4943853;28;20056;-65
2021/12/05 06:28:41;;;;;;;7.03;1.50;;;;;;;-0.65;55.79;99936.34;4954146;28;20039;-65
2021/12/05 06:47:04;;;;;;;4.65;1.85;;;;;;;-0.56;55.36;99961.06;4945167;28;20051;-64
2021/12/05 06:49:30;;;;;;;5.95;1.95;;;;;;;-0.54;55.47;99963.63;4940581;28;20035;-64
2021/12/05 06:51:55;;;;;;;3.20;1.35;;;;;;;-0.60;55.68;99965.38;4938964;28;20931;-65
2021/12/05 06:54:22;;;;;;;5.45;2.90;;;;;;;-0.60;55.67;99975.63;4938081;28;20035;-64
2021/12/05 06:56:48;;;;;;;4.85;2.63;;;;;;;-0.67;55.73;99974.00;4940842;28;20058;-64
2021/12/05 06:59:13;;;;;;;5.00;2.28;;;;;;;-0.61;55.91;99979.09;4939569;28;20040;-66
2021/12/05 07:01:39;;;;;;;4.68;1.98;;;;;;;-0.68;56.14;99982.56;4937486;28;20385;-65
2021/12/05 07:04:14;;;;;;;6.03;2.33;;;;;;;-0.45;55.84;99984.09;4933790;28;20039;-64
2021/12/05 07:06:41;;;;;;;4.68;2.20;;;;;;;-0.41;55.49;99988.34;4939482;28;20051;-65
2021/12/05 07:09:09;;;;;;;8.60;3.00;;;;;;;-0.57;55.92;99995.31;4954603;28;20650;-65
2021/12/05 07:11:49;;;;;;;6.35;2.53;;;;;;;-0.51;55.97;99992.69;4936575;28;20058;-64
2021/12/05 07:16:59;;;;;;;5.90;2.53;;;;;;;-0.47;55.85;100008.94;4937654;28;20031;-63
2021/12/05 07:19:36;;;;;;;8.05;3.28;;;;;;;-0.48;55.77;100009.78;4938677;28;20101;-63
2021/12/05 07:22:14;;;;;;;4.45;2.30;;;;;;;-0.43;55.64;100015.75;4941807;28;20065;-64
2021/12/05 07:24:45;;;;;;;7.80;3.17;;;;;;;-0.53;55.75;100020.06;4959135;28;20632;-64
2021/12/05 07:40:52;;;;;;;8.13;3.33;;;;;;;-0.25;55.19;100048.13;4958692;28;20038;-64
2021/12/05 07:43:18;;;;;;;8.63;3.47;;;;;;;-0.28;55.33;100049.00;4967969;28;20126;-64
2021/12/05 07:45:52;;;;;;;8.05;4.10;;;;;;;-0.32;55.42;100052.44;4958662;28;20720;-64
2021/12/05 07:48:23;;;;;;;6.22;3.80;;;;;;;-0.38;55.71;100055.91;4958102;28;20077;-64
2021/12/05 07:51:09;;;;;;;10.57;3.53;;;;;;;-0.31;55.62;100059.28;4959126;28;20129;-64
2021/12/05 07:56:20;;;;;;;7.95;3.75;;;;;;;-0.15;55.34;100063.44;4960109;28;20096;-64
2021/12/05 07:59:14;;;;;;;7.88;4.18;;;;;;;-0.38;55.83;100062.75;4953813;28;20058;-64
2021/12/05 08:15:51;;;;;;;7.15;3.38;;;;;;;-0.11;54.87;100081.38;4959259;28;20547;-64
2021/12/05 08:18:17;;;;;;;10.35;4.88;;;;;;;-0.19;55.30;100084.88;4954463;28;20411;-64
2021/12/05 08:20:44;;;;;;;10.73;5.03;;;;;;;-0.15;55.40;100088.25;4957494;28;20038;-64
2021/12/05 08:23:12;;;;;;;20.48;5.30;;;;;;;-0.20;55.45;100103.69;4956063;28;20083;-64
2021/12/05 08:25:41;;;;;;;11.85;5.43;;;;;;;-0.15;55.32;100111.38;4956308;28;20079;-64
2021/12/05 08:31:08;;;;;;;12.32;5.55;;;;;;;-0.17;55.50;100116.53;4929154;28;20230;-64
2021/12/05 08:42:03;;;;;;;10.13;4.97;;;;;;;-0.13;55.61;100133.59;4955418;28;20053;-64
2021/12/05 09:30:42;;;;;;;16.73;7.25;;;;;;;0.07;55.78;100240.53;4958274;28;20031;-65
2021/12/05 09:39:07;;;;;;;17.70;6.82;;;;;;;0.24;55.47;100254.13;4955378;28;20073;-65
2021/12/05 10:16:57;;;;;;;15.95;7.53;;;;;;;0.18;55.65;100323.53;4953898;28;20781;-63
2021/12/05 10:36:13;;;;;;;15.45;7.63;;;;;;;0.23;55.95;100339.81;4972482;28;20151;-71
2021/12/05 10:38:48;;;;;;;16.35;7.60;;;;;;;0.14;56.15;100349.28;4948533;28;20430;-71
2021/12/05 10:42:13;;;;;;;19.90;8.00;;;;;;;0.17;55.96;100347.56;4965204;28;20060;-70
2021/12/05 10:44:13;;;;;;;18.67;7.78;;;;;;;0.06;56.37;100354.47;4949729;28;20050;-71
2021/12/05 10:46:41;;;;;;;18.58;7.95;;;;;;;0.09;56.33;100362.16;4946277;28;20090;-73
2021/12/05 10:49:11;;;;;;;17.67;8.13;;;;;;;0.16;56.34;100358.69;4940475;28;20038;-73
2021/12/05 10:51:45;;;;;;;16.00;7.80;;;;;;;0.12;56.23;100356.97;4960828;28;20034;-71
2021/12/05 10:54:22;;;;;;;16.55;8.02;;;;;;;0.19;56.44;100363.81;4946564;28;20646;-70
2021/12/05 10:56:52;;;;;;;19.27;7.43;;;;;;;0.26;56.29;100367.22;4972107;28;20754;-70
2021/12/05 10:59:38;;;;;;;16.92;6.88;;;;;;;0.31;56.00;100369.75;4962762;28;20101;-71
2021/12/05 11:02:15;;;;;;;15.82;7.63;;;;;;;0.27;56.25;100372.31;4972010;28;20076;-71
2021/12/05 11:04:46;;;;;;;17.73;6.70;;;;;;;0.33;56.16;100373.19;4976262;28;20073;-71
2021/12/05 11:07:13;;;;;;;15.70;6.00;;;;;;;0.42;55.84;100370.53;4963204;28;20045;-71
2021/12/05 11:09:52;;;;;;;15.32;7.20;;;;;;;0.46;55.71;100374.81;4956358;28;20035;-72
2021/12/05 11:12:23;;;;;;;17.13;7.43;;;;;;;0.59;55.51;100379.00;4966306;28;20093;-71
2021/12/05 11:14:54;;;;;;;15.23;7.97;;;;;;;0.58;55.29;100382.44;4962628;28;20491;-71
2021/12/05 11:17:23;;;;;;;15.65;7.95;;;;;;;0.58;55.50;100391.88;4944793;28;20061;-71
2021/12/05 11:19:52;;;;;;;18.52;6.72;;;;;;;0.56;55.75;100403.88;4964188;28;20655;-71
2021/12/05 11:22:23;;;;;;;16.05;7.68;;;;;;;0.45;55.90;100406.50;4965383;28;20437;-71
2021/12/05 11:24:59;;;;;;;18.65;7.32;;;;;;;0.58;55.86;100404.72;4957558;28;20225;-72
2021/12/05 11:27:30;;;;;;;18.38;7.25;;;;;;;0.52;55.67;100408.19;4949526;28;20050;-71
2021/12/05 11:30:10;;;;;;;20.17;8.45;;;;;;;0.51;56.25;100403.06;4973054;28;20452;-71
2021/12/05 11:32:46;;;;;;;14.57;8.05;;;;;;;0.72;55.57;100409.78;4976876;28;20091;-72
2021/12/05 11:35:32;;;;;;;16.92;8.48;;;;;;;0.67;55.88;100408.09;4982291;28;20180;-76
2021/12/05 11:38:06;;;;;;;17.90;8.13;;;;;;;0.84;55.13;100410.56;4969222;28;20133;-72
2021/12/05 11:40:42;;;;;;;15.95;7.45;;;;;;;0.92;55.12;100413.06;4970903;28;20054;-72
2021/12/05 11:43:09;;;;;;;16.90;8.05;;;;;;;0.94;55.11;100411.34;4961144;28;20122;-71
2021/12/05 11:45:50;;;;;;;15.30;7.85;;;;;;;0.86;55.30;100424.28;4957040;28;20066;-71
2021/12/05 11:48:41;;;;;;;12.90;7.32;;;;;;;0.91;55.08;100419.09;4946653;28;20072;-71
2021/12/05 11:51:25;;;;;;;20.58;8.10;;;;;;;0.88;55.17;100422.53;4965523;28;20061;-71
2021/12/05 11:54:12;;;;;;;20.65;9.20;;;;;;;1.08;55.32;100424.97;4962131;28;20042;-71
2021/12/05 11:56:49;;;;;;;14.82;8.40;;;;;;;0.95;55.13;100427.63;4963442;28;20027;-72
2021/12/05 11:59:37;;;;;;;15.35;8.55;;;;;;;1.11;54.81;100424.94;4958928;28;20336;-72
2021/12/05 12:02:33;;;;;;;19.80;8.52;;;;;;;1.18;54.88;100424.88;4945075;28;20046;-71
2021/12/05 12:05:14;;;;;;;17.65;8.27;;;;;;;1.13;54.40;100421.47;4956724;28;20057;-72
2021/12/05 12:07:45;;;;;;;13.07;7.13;;;;;;;1.19;54.42;100424.00;4971262;28;20137;-71
2021/12/05 12:10:24;;;;;;;14.57;8.53;;;;;;;1.17;54.43;100431.78;4973460;28;20045;-71
2021/12/05 12:13:01;;;;;;;17.25;8.07;;;;;;;1.17;54.62;100425.75;4956975;28;20046;-72
2021/12/05 12:15:29;;;;;;;13.02;8.57;;;;;;;1.25;54.48;100436.84;4958143;28;20400;-72
2021/12/05 12:18:05;;;;;;;14.38;7.88;;;;;;;1.29;54.23;100435.94;4977126;28;20054;-71
2021/12/05 12:20:33;;;;;;;13.93;7.30;;;;;;;1.26;54.35;100438.53;4960613;28;20420;-71
2021/12/05 12:22:59;;;;;;;17.95;8.35;;;;;;;1.32;54.57;100452.22;4942944;28;20050;-72
2021/12/05 12:25:28;;;;;;;18.00;7.95;;;;;;;1.31;54.46;100457.41;4956249;28;20331;-72
2021/12/05 12:27:55;;;;;;;16.17;7.05;;;;;;;1.34;54.47;100457.34;4955113;28;20065;-71
2021/12/05 12:30:27;;;;;;;13.50;7.32;;;;;;;1.36;54.30;100465.94;4963099;28;20397;-71
2021/12/05 12:32:58;;;;;;;;;;;;;;;1.40;54.32;100457.34;4930012;28;20072;-71
2021/12/05 12:35:29;;;;;;;13.65;7.10;;;;;;;1.47;54.08;100459.00;4973340;28;19932;-72
2021/12/05 12:38:08;;;;;;;9.63;6.67;;;;;;;1.51;54.23;100462.41;4955419;28;20168;-71
2021/12/05 12:40:36;;;;;;;14.77;7.55;;;;;;;1.50;54.08;100461.53;4957648;28;20073;-72
2021/12/05 12:43:04;;;;;;;14.43;6.93;;;;;;;1.43;54.14;100469.34;4975850;28;20456;-71
2021/12/05 12:45:40;;;;;;;13.90;7.80;;;;;;;1.48;54.19;100471.03;4941359;28;20484;-72
2021/12/05 12:48:12;;;;;;;13.70;6.68;;;;;;;1.51;53.99;100476.13;4925029;28;20050;-72
2021/12/05 12:50:51;;;;;;;13.93;7.82;;;;;;;1.59;54.02;100472.63;4944689;28;20035;-71
2021/12/05 12:53:29;;;;;;;12.60;6.93;;;;;;;1.64;54.13;100476.00;4920928;28;20082;-72
2021/12/05 12:56:10;;;;;;;15.40;6.85;;;;;;;1.63;53.61;100489.78;4963684;28;20147;-73
2021/12/05 12:58:42;;;;;;;13.38;6.43;;;;;;;1.50;53.52;100491.59;4970419;28;20047;-72
2021/12/05 13:04:33;;;;;;;11.40;6.18;;;;;;;1.40;53.84;100498.56;4971535;28;20047;-73
2021/12/05 13:12:47;;;;;;;14.60;5.63;;;;;;;1.19;54.37;100507.25;4974194;28;20484;-72
2021/12/05 13:15:16;;;;;;;14.70;7.20;;;;;;;1.14;54.71;100510.72;4974021;28;20117;-71
2021/12/05 13:17:48;;;;;;;12.20;6.63;;;;;;;1.22;54.54;100514.13;4958991;28;20504;-72
2021/12/05 13:20:18;;;;;;;14.00;6.57;;;;;;;1.37;54.35;100516.56;4960379;28;20046;-72
2021/12/05 13:23:06;;;;;;;15.18;6.60;;;;;;;1.42;54.06;100522.56;4990454;22;20031;-67
2021/12/05 13:25:35;;;;;;;15.25;8.00;;;;;;;1.45;54.20;100521.69;4967731;28;20042;-66
2021/12/05 13:28:28;;;;;;;9.38;5.82;;;;;;;1.44;53.66;100531.16;4970308;28;20050;-67
2021/12/05 13:30:54;;;;;;;14.35;6.82;;;;;;;1.29;54.16;100541.53;4951932;28;20186;-66
2021/12/05 13:33:23;;;;;;;11.43;6.28;;;;;;;1.19;54.35;100534.72;4939018;28;20034;-67
2021/12/05 13:35:49;;;;;;;13.32;7.63;;;;;;;1.23;54.39;100547.56;4931263;28;20497;-67
2021/12/05 13:38:35;;;;;;;14.38;6.55;;;;;;;1.27;54.28;100549.25;4949640;28;20413;-68
2021/12/05 13:41:11;;;;;;;16.38;7.63;;;;;;;1.34;54.31;100555.22;4951075;28;20443;-66
2021/12/05 13:43:38;;;;;;;23.30;13.23;;;;;;;1.33;54.06;100548.38;4948839;28;20146;-66
2021/12/05 13:46:31;;;;;;;17.33;8.43;;;;;;;1.29;53.87;100559.53;4950177;28;20066;-66
2021/12/05 13:48:57;;;;;;;;;;;;;;;1.26;54.02;100570.72;4947621;28;20045;-65
2021/12/05 13:51:24;;;;;;;14.60;6.80;;;;;;;1.20;54.16;100573.31;4950286;28;19919;-66
2021/12/05 13:53:52;;;;;;;15.55;6.53;;;;;;;1.07;54.53;100577.69;4948035;28;20100;-67
2021/12/05 13:56:24;;;;;;;14.55;7.15;;;;;;;1.08;54.44;100579.41;4954610;28;20038;-67
2021/12/05 13:58:54;;;;;;;13.50;7.00;;;;;;;1.08;54.20;100584.56;4953637;28;20070;-67
2021/12/05 14:01:29;;;;;;;62.28;21.08;;;;;;;1.11;54.25;100584.53;4952677;28;20495;-67
2021/12/05 14:04:19;;;;;;;20.90;10.45;;;;;;;1.12;54.25;100590.53;4950867;28;20411;-66
2021/12/05 14:06:53;;;;;;;15.13;7.78;;;;;;;1.15;54.27;100600.81;4935245;28;20031;-66
2021/12/05 14:09:36;;;;;;;11.88;6.57;;;;;;;1.16;54.28;100606.81;4950342;28;20523;-65
2021/12/05 14:12:10;;;;;;;12.65;7.38;;;;;;;1.16;53.94;100611.97;4950322;28;20674;-66
2021/12/05 14:14:39;;;;;;;12.55;6.38;;;;;;;1.18;54.21;100611.09;4949882;28;20030;-66
2021/12/05 14:17:13;;;;;;;27.85;12.73;;;;;;;1.28;54.08;100617.03;4950567;28;20059;-66
2021/12/05 14:19:42;;;;;;;16.25;8.88;;;;;;;1.36;53.79;100628.16;4948800;28;20100;-65
2021/12/05 14:22:11;;;;;;;15.57;6.80;;;;;;;1.31;54.16;100622.19;4951737;28;20042;-67
2021/12/05 14:24:41;;;;;;;11.35;5.70;;;;;;;1.34;53.77;100623.88;4952182;28;20490;-67
2021/12/05 14:27:10;;;;;;;11.40;5.43;;;;;;;1.30;53.79;100635.91;4949309;28;20089;-66
2021/12/05 14:29:40;;;;;;;12.63;5.72;;;;;;;1.34;54.11;100645.34;4949992;28;20496;-67
2021/12/05 14:32:13;;;;;;;11.15;4.88;;;;;;;1.21;54.09;100649.69;4932390;28;20655;-67
2021/12/05 14:34:39;;;;;;;11.48;6.10;;;;;;;1.28;53.70;100653.97;4950090;28;20035;-67
2021/12/05 14:37:16;;;;;;;10.63;6.00;;;;;;;1.23;54.14;100662.56;4947953;28;20190;-66
2021/12/05 14:39:45;;;;;;;10.57;6.50;;;;;;;1.17;54.00;100670.31;4953691;28;20043;-66
2021/12/05 14:42:20;;;;;;;8.73;4.80;;;;;;;1.10;54.07;100667.78;4952946;28;20046;-65
2021/12/05 14:44:52;;;;;;;11.35;5.07;;;;;;;1.10;53.88;100669.47;4955967;28;20055;-66
2021/12/05 14:47:23;;;;;;;11.80;6.63;;;;;;;1.09;53.68;100671.19;4951858;28;20039;-66
2021/12/05 14:49:56;;;;;;;8.57;5.50;;;;;;;1.02;53.85;100682.38;4953443;28;20448;-66
2021/12/05 14:52:26;;;;;;;9.88;5.35;;;;;;;0.99;54.01;100686.69;4950381;28;20034;-65
2021/12/05 14:54:52;;;;;;;9.95;4.97;;;;;;;0.97;53.88;100688.41;4953562;28;21459;-67
2021/12/05 14:57:24;;;;;;;6.15;3.90;;;;;;;1.01;53.84;100688.38;4952823;28;20398;-65
2021/12/05 14:59:52;;;;;;;9.02;4.88;;;;;;;1.02;53.96;100702.97;4955720;28;20053;-67
2021/12/05 15:02:19;;;;;;;13.13;6.13;;;;;;;1.01;53.78;100711.53;4947614;28;20047;-67
2021/12/05 15:04:51;;;;;;;11.15;5.55;;;;;;;0.98;53.81;100719.28;4949567;28;20463;-66
2021/12/05 15:07:18;;;;;;;;;;;;;;;0.95;53.84;100727.03;4948817;28;20042;-66
2021/12/05 15:09:47;;;;;;;7.72;5.20;;;;;;;0.95;54.10;100731.28;4951320;28;20894;-64
2021/12/05 15:12:18;;;;;;;7.60;5.15;;;;;;;0.94;54.07;100739.88;4950414;28;20042;-69
2021/12/05 15:14:48;;;;;;;10.00;5.38;;;;;;;0.96;54.30;100751.88;4949040;28;20489;-66
2021/12/05 15:17:18;;;;;;;8.98;5.57;;;;;;;0.94;54.19;100748.47;4949912;28;20054;-66
2021/12/05 15:19:49;;;;;;;14.10;8.23;;;;;;;1.01;53.79;100745.00;4950306;28;20780;-66
2021/12/05 15:22:15;;;;;;;7.82;5.82;;;;;;;1.00;53.58;100751.03;4922795;28;20063;-66
2021/12/05 15:24:49;;;;;;;13.35;6.13;;;;;;;0.93;53.96;100764.78;4951071;28;20034;-66
2021/12/05 15:27:16;;;;;;;8.85;5.03;;;;;;;1.00;53.82;100765.63;4931338;28;21491;-66
2021/12/05 15:29:47;;;;;;;10.18;5.75;;;;;;;0.93;53.87;100780.22;4952799;28;20459;-65
2021/12/05 15:32:20;;;;;;;11.30;5.60;;;;;;;0.77;54.27;100783.63;4949413;28;20035;-66
2021/12/05 15:34:48;;;;;;;;;;;;;;;0.90;54.29;100793.06;4951750;28;20050;-66
2021/12/05 15:37:13;;;;;;;10.15;5.68;;;;;;;0.85;54.35;100789.66;4949727;28;20376;-67
2021/12/05 15:39:43;;;;;;;12.45;7.53;;;;;;;0.79;54.05;100797.38;4949161;28;20165;-66
2021/12/05 15:42:26;;;;;;;11.00;7.50;;;;;;;0.83;54.15;100792.22;4948638;28;20041;-66
2021/12/05 15:44:54;;;;;;;16.15;10.57;;;;;;;0.94;54.11;100797.34;4932837;28;20418;-66
2021/12/05 15:47:22;;;;;;;11.32;6.00;;;;;;;0.85;54.26;100802.50;4950795;28;20074;-66
2021/12/05 15:49:47;;;;;;;11.00;6.75;;;;;;;0.77;54.44;100799.06;4949591;28;20540;-66
2021/12/05 15:52:14;;;;;;;9.30;5.30;;;;;;;0.84;54.18;100811.97;4945536;28;20147;-66
2021/12/05 15:54:43;;;;;;;10.85;6.13;;;;;;;0.74;54.38;100811.97;4948226;28;20539;-66
2021/12/05 15:57:14;;;;;;;13.88;7.50;;;;;;;0.72;54.54;100821.38;4945775;28;20065;-68
2021/12/05 15:59:43;;;;;;;10.95;5.90;;;;;;;0.57;54.63;100819.66;4947015;28;20301;-66
2021/12/05 16:02:11;;;;;;;11.90;6.60;;;;;;;0.68;54.29;100823.97;4948254;28;20081;-67
2021/12/05 16:04:39;;;;;;;11.15;7.18;;;;;;;0.78;54.16;100831.69;4948055;28;20320;-66
2021/12/05 16:07:08;;;;;;;12.32;6.45;;;;;;;0.72;54.43;100845.38;4948841;28;20347;-68
2021/12/05 16:09:35;;;;;;;12.95;6.22;;;;;;;0.60;54.44;100851.38;4947542;28;20121;-66
2021/12/05 16:12:16;;;;;;;14.18;6.60;;;;;;;0.78;54.07;100857.41;4948288;28;20566;-66
2021/12/05 16:14:45;;;;;;;14.43;6.55;;;;;;;0.75;54.17;100857.38;4950300;28;20484;-66
2021/12/05 16:17:17;;;;;;;12.80;6.90;;;;;;;0.71;54.05;100860.84;4944956;28;20058;-66
2021/12/05 16:20:09;;;;;;;12.35;6.82;;;;;;;0.66;54.57;100864.28;4937044;28;20039;-67
2021/12/05 16:22:53;;;;;;;13.93;7.13;;;;;;;0.56;54.76;100865.09;4951476;28;20043;-67
2021/12/05 16:25:19;;;;;;;19.55;9.35;;;;;;;0.60;54.47;100863.41;4950765;28;20039;-66
2021/12/05 16:27:52;;;;;;;38.35;17.00;;;;;;;0.60;54.29;100874.53;4951225;28;20062;-68
2021/12/05 16:30:23;;;;;;;26.92;12.55;;;;;;;0.52;54.53;100875.38;4950155;28;20043;-68
2021/12/05 16:32:49;;;;;;;12.10;6.40;;;;;;;0.53;54.30;100887.41;4950849;28;20031;-68
2021/12/05 16:35:43;;;;;;;15.55;8.45;;;;;;;0.46;54.52;100887.38;4952757;28;20459;-66
2021/12/05 16:38:18;;;;;;;34.53;13.35;;;;;;;0.55;54.30;100885.69;4951664;28;20792;-66
2021/12/05 16:40:58;;;;;;;27.52;13.20;;;;;;;0.50;54.32;100883.09;4951540;28;20047;-66
2021/12/05 16:43:26;;;;;;;20.33;10.07;;;;;;;0.43;54.54;100900.22;4951945;28;20070;-67
2021/12/05 16:46:13;;;;;;;24.42;10.00;;;;;;;0.38;54.94;100906.22;4949769;28;20448;-66
2021/12/05 16:48:40;;;;;;;19.83;8.73;;;;;;;0.45;54.53;100906.22;4951472;28;20038;-66
2021/12/05 16:51:32;;;;;;;19.63;8.80;;;;;;;0.50;54.45;100916.50;4954589;28;20038;-66
2021/12/05 16:54:04;;;;;;;21.52;11.25;;;;;;;0.45;54.46;100915.66;4955939;28;20048;-66
2021/12/05 16:56:40;;;;;;;25.73;10.43;;;;;;;0.52;54.49;100917.38;4953193;28;20050;-67
2021/12/05 16:59:16;;;;;;;20.42;10.15;;;;;;;0.33;54.87;100918.22;4954366;28;20573;-67
2021/12/05 17:01:43;;;;;;;24.40;10.25;;;;;;;0.46;54.38;100927.69;4953642;28;20050;-66
2021/12/05 17:04:09;;;;;;;23.90;10.20;;;;;;;0.35;54.78;100937.06;4951900;28;20031;-66
2021/12/05 17:07:05;;;;;;;23.65;10.68;;;;;;;0.43;54.48;100927.66;4952180;28;20035;-67
2021/12/05 17:09:38;;;;;;;24.10;10.27;;;;;;;0.23;54.71;100935.28;4948905;28;20045;-66
2021/12/05 17:12:04;;;;;;;21.23;9.23;;;;;;;0.37;54.45;100940.50;4953502;28;20134;-66
2021/12/05 17:14:30;;;;;;;20.63;9.77;;;;;;;0.38;54.28;100945.63;4951455;28;20146;-67